sensor_id;sensor_type;location;lat;lon;timestamp;P1;P2;P0
64114;PMS5003;62188;35.640;139.748;2023-04-03T00:02:13;14;14;
64114;PMS5003;62188;35.640;139.748;2023-04-03T00:04:39;19;18;
64114;PMS5003;62188;35.640;139.748;2023-04-03T00:07:04;14;14;
64114;PMS5003;62188;35.640;139.748;2023-04-03T00:09:30;16;15;
64114;PMS5003;62188;35.640;139.748;2023-04-03T00:11:56;16;15;
64114;PMS5003;62188;35.640;139.748;2023-04-03T00:14:21;14;14;
64114;PMS5003;62188;35.640;139.748;2023-04-03T00:16:46;18;16;
64114;PMS5003;62188;35.640;139.748;2023-04-03T00:19:12;15;14;
64114;PMS5003;62188;35.640;139.748;2023-04-03T00:21:37;19;16;
64114;PMS5003;62188;35.640;139.748;2023-04-03T00:24:03;15;15;
64114;PMS5003;62188;35.640;139.748;2023-04-03T00:26:28;15;14;
64114;PMS5003;62188;35.640;139.748;2023-04-03T00:28:54;18;15;
64114;PMS5003;62188;35.640;139.748;2023-04-03T00:31:20;13;13;
64114;PMS5003;62188;35.640;139.748;2023-04-03T00:33:45;14;13;
64114;PMS5003;62188;35.640;139.748;2023-04-03T00:36:12;16;15;
64114;PMS5003;62188;35.640;139.748;2023-04-03T00:38:37;16;16;
64114;PMS5003;62188;35.640;139.748;2023-04-03T00:41:02;13;12;
64114;PMS5003;62188;35.640;139.748;2023-04-03T00:43:27;15;15;
64114;PMS5003;62188;35.640;139.748;2023-04-03T00:45:54;16;16;
64114;PMS5003;62188;35.640;139.748;2023-04-03T00:48:20;16;15;
64114;PMS5003;62188;35.640;139.748;2023-04-03T00:50:44;14;13;
64114;PMS5003;62188;35.640;139.748;2023-04-03T00:53:10;17;16;
64114;PMS5003;62188;35.640;139.748;2023-04-03T00:55:35;14;13;
64114;PMS5003;62188;35.640;139.748;2023-04-03T00:58:01;19;18;
64114;PMS5003;62188;35.640;139.748;2023-04-03T01:00:27;23;20;
64114;PMS5003;62188;35.640;139.748;2023-04-03T01:02:52;13;13;
64114;PMS5003;62188;35.640;139.748;2023-04-03T01:05:18;15;14;
64114;PMS5003;62188;35.640;139.748;2023-04-03T01:07:43;13;13;
64114;PMS5003;62188;35.640;139.748;2023-04-03T01:10:09;22;20;
64114;PMS5003;62188;35.640;139.748;2023-04-03T01:12:35;15;15;
64114;PMS5003;62188;35.640;139.748;2023-04-03T01:15:01;15;14;
64114;PMS5003;62188;35.640;139.748;2023-04-03T01:17:27;14;13;
64114;PMS5003;62188;35.640;139.748;2023-04-03T01:19:51;13;13;
64114;PMS5003;62188;35.640;139.748;2023-04-03T01:22:16;13;13;
64114;PMS5003;62188;35.640;139.748;2023-04-03T01:24:41;14;14;
64114;PMS5003;62188;35.640;139.748;2023-04-03T01:27:07;16;15;
64114;PMS5003;62188;35.640;139.748;2023-04-03T01:29:32;13;13;
64114;PMS5003;62188;35.640;139.748;2023-04-03T01:31:58;14;13;
64114;PMS5003;62188;35.640;139.748;2023-04-03T01:34:24;16;16;
64114;PMS5003;62188;35.640;139.748;2023-04-03T01:36:49;16;16;
64114;PMS5003;62188;35.640;139.748;2023-04-03T01:39:15;17;16;
64114;PMS5003;62188;35.640;139.748;2023-04-03T01:41:40;16;16;
64114;PMS5003;62188;35.640;139.748;2023-04-03T01:44:06;18;17;
64114;PMS5003;62188;35.640;139.748;2023-04-03T01:46:31;14;14;
64114;PMS5003;62188;35.640;139.748;2023-04-03T01:48:56;17;17;
64114;PMS5003;62188;35.640;139.748;2023-04-03T01:51:22;15;15;
64114;PMS5003;62188;35.640;139.748;2023-04-03T01:53:48;18;16;
64114;PMS5003;62188;35.640;139.748;2023-04-03T01:56:13;18;17;
64114;PMS5003;62188;35.640;139.748;2023-04-03T01:58:38;15;15;
64114;PMS5003;62188;35.640;139.748;2023-04-03T02:01:04;18;17;
64114;PMS5003;62188;35.640;139.748;2023-04-03T02:03:29;16;16;
64114;PMS5003;62188;35.640;139.748;2023-04-03T02:05:55;17;17;
64114;PMS5003;62188;35.640;139.748;2023-04-03T02:08:20;17;16;
64114;PMS5003;62188;35.640;139.748;2023-04-03T02:10:47;16;16;
64114;PMS5003;62188;35.640;139.748;2023-04-03T02:13:11;17;17;
64114;PMS5003;62188;35.640;139.748;2023-04-03T02:15:37;16;15;
64114;PMS5003;62188;35.640;139.748;2023-04-03T02:18:02;14;14;
64114;PMS5003;62188;35.640;139.748;2023-04-03T02:20:27;17;17;
64114;PMS5003;62188;35.640;139.748;2023-04-03T02:22:53;15;15;
64114;PMS5003;62188;35.640;139.748;2023-04-03T02:25:19;15;15;
64114;PMS5003;62188;35.640;139.748;2023-04-03T02:27:44;14;14;
64114;PMS5003;62188;35.640;139.748;2023-04-03T02:30:10;14;14;
64114;PMS5003;62188;35.640;139.748;2023-04-03T02:32:35;19;18;
64114;PMS5003;62188;35.640;139.748;2023-04-03T02:35:01;18;18;
64114;PMS5003;62188;35.640;139.748;2023-04-03T02:37:26;18;18;
64114;PMS5003;62188;35.640;139.748;2023-04-03T02:39:52;14;14;
64114;PMS5003;62188;35.640;139.748;2023-04-03T02:42:18;20;20;
64114;PMS5003;62188;35.640;139.748;2023-04-03T02:44:44;17;17;
64114;PMS5003;62188;35.640;139.748;2023-04-03T02:47:09;17;16;
64114;PMS5003;62188;35.640;139.748;2023-04-03T02:49:34;17;17;
64114;PMS5003;62188;35.640;139.748;2023-04-03T02:51:59;20;20;
64114;PMS5003;62188;35.640;139.748;2023-04-03T02:54:25;18;18;
64114;PMS5003;62188;35.640;139.748;2023-04-03T02:56:50;15;15;
64114;PMS5003;62188;35.640;139.748;2023-04-03T02:59:16;19;18;
64114;PMS5003;62188;35.640;139.748;2023-04-03T03:01:41;18;18;
64114;PMS5003;62188;35.640;139.748;2023-04-03T03:04:07;19;19;
64114;PMS5003;62188;35.640;139.748;2023-04-03T03:06:32;19;18;
64114;PMS5003;62188;35.640;139.748;2023-04-03T03:08:58;19;18;
64114;PMS5003;62188;35.640;139.748;2023-04-03T03:11:23;20;19;
64114;PMS5003;62188;35.640;139.748;2023-04-03T03:13:48;18;18;
64114;PMS5003;62188;35.640;139.748;2023-04-03T03:16:14;20;20;
64114;PMS5003;62188;35.640;139.748;2023-04-03T03:18:39;18;17;
64114;PMS5003;62188;35.640;139.748;2023-04-03T03:21:05;19;19;
64114;PMS5003;62188;35.640;139.748;2023-04-03T03:23:31;18;18;
64114;PMS5003;62188;35.640;139.748;2023-04-03T03:25:56;19;17;
64114;PMS5003;62188;35.640;139.748;2023-04-03T03:28:21;25;21;
64114;PMS5003;62188;35.640;139.748;2023-04-03T03:30:47;19;18;
64114;PMS5003;62188;35.640;139.748;2023-04-03T03:33:12;18;18;
64114;PMS5003;62188;35.640;139.748;2023-04-03T03:35:37;17;17;
64114;PMS5003;62188;35.640;139.748;2023-04-03T03:38:03;18;17;
64114;PMS5003;62188;35.640;139.748;2023-04-03T03:40:29;17;16;
64114;PMS5003;62188;35.640;139.748;2023-04-03T03:42:54;16;16;
64114;PMS5003;62188;35.640;139.748;2023-04-03T03:45:20;18;16;
64114;PMS5003;62188;35.640;139.748;2023-04-03T03:47:45;17;17;
64114;PMS5003;62188;35.640;139.748;2023-04-03T03:50:10;14;14;
64114;PMS5003;62188;35.640;139.748;2023-04-03T03:52:36;18;17;
64114;PMS5003;62188;35.640;139.748;2023-04-03T03:55:02;18;16;
64114;PMS5003;62188;35.640;139.748;2023-04-03T03:57:27;16;14;
64114;PMS5003;62188;35.640;139.748;2023-04-03T03:59:53;18;16;
64114;PMS5003;62188;35.640;139.748;2023-04-03T04:02:18;19;19;
64114;PMS5003;62188;35.640;139.748;2023-04-03T04:04:43;16;16;
64114;PMS5003;62188;35.640;139.748;2023-04-03T04:07:09;15;14;
64114;PMS5003;62188;35.640;139.748;2023-04-03T04:09:34;15;14;
64114;PMS5003;62188;35.640;139.748;2023-04-03T04:12:00;18;16;
64114;PMS5003;62188;35.640;139.748;2023-04-03T04:14:25;18;17;
64114;PMS5003;62188;35.640;139.748;2023-04-03T04:16:51;16;16;
64114;PMS5003;62188;35.640;139.748;2023-04-03T04:19:16;15;15;
64114;PMS5003;62188;35.640;139.748;2023-04-03T04:21:42;16;15;
64114;PMS5003;62188;35.640;139.748;2023-04-03T04:24:08;15;15;
64114;PMS5003;62188;35.640;139.748;2023-04-03T04:26:33;15;15;
64114;PMS5003;62188;35.640;139.748;2023-04-03T04:28:58;15;15;
64114;PMS5003;62188;35.640;139.748;2023-04-03T04:31:24;15;15;
64114;PMS5003;62188;35.640;139.748;2023-04-03T04:33:49;16;15;
64114;PMS5003;62188;35.640;139.748;2023-04-03T04:36:15;17;16;
64114;PMS5003;62188;35.640;139.748;2023-04-03T04:38:40;16;15;
64114;PMS5003;62188;35.640;139.748;2023-04-03T04:41:06;15;14;
64114;PMS5003;62188;35.640;139.748;2023-04-03T04:43:32;16;15;
64114;PMS5003;62188;35.640;139.748;2023-04-03T04:46:01;13;12;
64114;PMS5003;62188;35.640;139.748;2023-04-03T04:48:23;15;15;
64114;PMS5003;62188;35.640;139.748;2023-04-03T04:50:48;15;15;
64114;PMS5003;62188;35.640;139.748;2023-04-03T04:53:13;17;16;
64114;PMS5003;62188;35.640;139.748;2023-04-03T04:55:39;19;19;
64114;PMS5003;62188;35.640;139.748;2023-04-03T04:58:04;14;14;
64114;PMS5003;62188;35.640;139.748;2023-04-03T05:00:30;16;15;
64114;PMS5003;62188;35.640;139.748;2023-04-03T05:02:56;15;15;
64114;PMS5003;62188;35.640;139.748;2023-04-03T05:05:22;17;16;
64114;PMS5003;62188;35.640;139.748;2023-04-03T05:07:47;15;15;
64114;PMS5003;62188;35.640;139.748;2023-04-03T05:10:13;15;15;
64114;PMS5003;62188;35.640;139.748;2023-04-03T05:12:38;16;15;
64114;PMS5003;62188;35.640;139.748;2023-04-03T05:15:04;13;13;
64114;PMS5003;62188;35.640;139.748;2023-04-03T05:17:29;14;13;
64114;PMS5003;62188;35.640;139.748;2023-04-03T05:19:55;14;13;
64114;PMS5003;62188;35.640;139.748;2023-04-03T05:22:21;13;13;
64114;PMS5003;62188;35.640;139.748;2023-04-03T05:24:46;17;17;
64114;PMS5003;62188;35.640;139.748;2023-04-03T05:27:12;14;14;
64114;PMS5003;62188;35.640;139.748;2023-04-03T05:29:37;15;14;
64114;PMS5003;62188;35.640;139.748;2023-04-03T05:32:03;15;14;
64114;PMS5003;62188;35.640;139.748;2023-04-03T05:34:28;17;16;
64114;PMS5003;62188;35.640;139.748;2023-04-03T05:36:54;15;14;
64114;PMS5003;62188;35.640;139.748;2023-04-03T05:39:19;13;13;
64114;PMS5003;62188;35.640;139.748;2023-04-03T05:41:44;18;15;
64114;PMS5003;62188;35.640;139.748;2023-04-03T05:44:10;15;15;
64114;PMS5003;62188;35.640;139.748;2023-04-03T05:46:36;15;14;
64114;PMS5003;62188;35.640;139.748;2023-04-03T05:49:02;15;15;
64114;PMS5003;62188;35.640;139.748;2023-04-03T05:51:28;16;15;
64114;PMS5003;62188;35.640;139.748;2023-04-03T05:53:53;16;16;
64114;PMS5003;62188;35.640;139.748;2023-04-03T05:56:18;13;13;
64114;PMS5003;62188;35.640;139.748;2023-04-03T05:58:43;15;15;
64114;PMS5003;62188;35.640;139.748;2023-04-03T06:01:09;14;14;
64114;PMS5003;62188;35.640;139.748;2023-04-03T06:03:34;14;13;
64114;PMS5003;62188;35.640;139.748;2023-04-03T06:06:00;15;14;
64114;PMS5003;62188;35.640;139.748;2023-04-03T06:08:25;15;15;
64114;PMS5003;62188;35.640;139.748;2023-04-03T06:10:50;15;15;
64114;PMS5003;62188;35.640;139.748;2023-04-03T06:13:15;15;14;
64114;PMS5003;62188;35.640;139.748;2023-04-03T06:15:41;12;12;
64114;PMS5003;62188;35.640;139.748;2023-04-03T06:18:06;13;13;
64114;PMS5003;62188;35.640;139.748;2023-04-03T06:20:32;14;13;
64114;PMS5003;62188;35.640;139.748;2023-04-03T06:22:57;13;13;
64114;PMS5003;62188;35.640;139.748;2023-04-03T06:25:23;15;15;
64114;PMS5003;62188;35.640;139.748;2023-04-03T06:27:48;14;12;
64114;PMS5003;62188;35.640;139.748;2023-04-03T06:30:14;15;14;
64114;PMS5003;62188;35.640;139.748;2023-04-03T06:32:39;14;14;
64114;PMS5003;62188;35.640;139.748;2023-04-03T06:35:05;13;13;
64114;PMS5003;62188;35.640;139.748;2023-04-03T06:37:30;14;13;
64114;PMS5003;62188;35.640;139.748;2023-04-03T06:39:55;17;16;
64114;PMS5003;62188;35.640;139.748;2023-04-03T06:42:22;15;15;
64114;PMS5003;62188;35.640;139.748;2023-04-03T06:44:47;15;15;
64114;PMS5003;62188;35.640;139.748;2023-04-03T06:47:13;13;13;
64114;PMS5003;62188;35.640;139.748;2023-04-03T06:49:38;14;13;
64114;PMS5003;62188;35.640;139.748;2023-04-03T06:52:04;14;14;
64114;PMS5003;62188;35.640;139.748;2023-04-03T06:54:29;15;13;
64114;PMS5003;62188;35.640;139.748;2023-04-03T06:56:56;15;14;
64114;PMS5003;62188;35.640;139.748;2023-04-03T06:59:20;14;12;
64114;PMS5003;62188;35.640;139.748;2023-04-03T07:01:45;15;14;
64114;PMS5003;62188;35.640;139.748;2023-04-03T07:04:11;16;15;
64114;PMS5003;62188;35.640;139.748;2023-04-03T07:06:36;15;14;
64114;PMS5003;62188;35.640;139.748;2023-04-03T07:09:02;16;15;
64114;PMS5003;62188;35.640;139.748;2023-04-03T07:11:27;17;16;
64114;PMS5003;62188;35.640;139.748;2023-04-03T07:13:53;15;14;
64114;PMS5003;62188;35.640;139.748;2023-04-03T07:16:18;16;15;
64114;PMS5003;62188;35.640;139.748;2023-04-03T07:18:44;14;13;
64114;PMS5003;62188;35.640;139.748;2023-04-03T07:21:09;13;12;
64114;PMS5003;62188;35.640;139.748;2023-04-03T07:23:34;16;16;
64114;PMS5003;62188;35.640;139.748;2023-04-03T07:26:00;16;15;
64114;PMS5003;62188;35.640;139.748;2023-04-03T07:28:26;13;13;
64114;PMS5003;62188;35.640;139.748;2023-04-03T07:30:52;18;15;
64114;PMS5003;62188;35.640;139.748;2023-04-03T07:33:18;15;13;
64114;PMS5003;62188;35.640;139.748;2023-04-03T07:35:43;13;13;
64114;PMS5003;62188;35.640;139.748;2023-04-03T07:38:08;19;17;
64114;PMS5003;62188;35.640;139.748;2023-04-03T07:40:33;16;16;
64114;PMS5003;62188;35.640;139.748;2023-04-03T07:42:59;19;18;
64114;PMS5003;62188;35.640;139.748;2023-04-03T07:45:25;16;16;
64114;PMS5003;62188;35.640;139.748;2023-04-03T07:47:50;14;13;
64114;PMS5003;62188;35.640;139.748;2023-04-03T07:50:16;16;15;
64114;PMS5003;62188;35.640;139.748;2023-04-03T07:52:41;14;14;
64114;PMS5003;62188;35.640;139.748;2023-04-03T07:55:07;14;14;
64114;PMS5003;62188;35.640;139.748;2023-04-03T07:57:32;15;14;
64114;PMS5003;62188;35.640;139.748;2023-04-03T07:59:57;15;13;
64114;PMS5003;62188;35.640;139.748;2023-04-03T08:02:23;14;13;
64114;PMS5003;62188;35.640;139.748;2023-04-03T08:04:49;16;15;
64114;PMS5003;62188;35.640;139.748;2023-04-03T08:07:14;14;12;
64114;PMS5003;62188;35.640;139.748;2023-04-03T08:09:40;13;13;
64114;PMS5003;62188;35.640;139.748;2023-04-03T08:12:06;13;12;
64114;PMS5003;62188;35.640;139.748;2023-04-03T08:14:31;14;13;
64114;PMS5003;62188;35.640;139.748;2023-04-03T08:16:57;14;14;
64114;PMS5003;62188;35.640;139.748;2023-04-03T08:19:22;14;13;
64114;PMS5003;62188;35.640;139.748;2023-04-03T08:21:47;12;12;
64114;PMS5003;62188;35.640;139.748;2023-04-03T08:24:14;13;12;
64114;PMS5003;62188;35.640;139.748;2023-04-03T08:26:39;12;12;
64114;PMS5003;62188;35.640;139.748;2023-04-03T08:29:04;12;12;
64114;PMS5003;62188;35.640;139.748;2023-04-03T08:31:30;11;10;
64114;PMS5003;62188;35.640;139.748;2023-04-03T08:33:56;10;10;
64114;PMS5003;62188;35.640;139.748;2023-04-03T08:36:21;9;8;
64114;PMS5003;62188;35.640;139.748;2023-04-03T08:38:47;8;7;
64114;PMS5003;62188;35.640;139.748;2023-04-03T08:41:14;12;10;
64114;PMS5003;62188;35.640;139.748;2023-04-03T08:43:40;8;8;
64114;PMS5003;62188;35.640;139.748;2023-04-03T08:46:04;9;9;
64114;PMS5003;62188;35.640;139.748;2023-04-03T08:48:29;9;9;
64114;PMS5003;62188;35.640;139.748;2023-04-03T08:50:56;9;7;
64114;PMS5003;62188;35.640;139.748;2023-04-03T08:53:20;7;7;
64114;PMS5003;62188;35.640;139.748;2023-04-03T08:55:46;7;7;
64114;PMS5003;62188;35.640;139.748;2023-04-03T08:58:12;7;7;
64114;PMS5003;62188;35.640;139.748;2023-04-03T09:00:40;7;6;
64114;PMS5003;62188;35.640;139.748;2023-04-03T09:03:02;7;7;
64114;PMS5003;62188;35.640;139.748;2023-04-03T09:05:32;11;10;
64114;PMS5003;62188;35.640;139.748;2023-04-03T09:07:54;6;6;
64114;PMS5003;62188;35.640;139.748;2023-04-03T09:10:21;10;8;
64114;PMS5003;62188;35.640;139.748;2023-04-03T09:12:44;8;8;
64114;PMS5003;62188;35.640;139.748;2023-04-03T09:15:12;7;7;
64114;PMS5003;62188;35.640;139.748;2023-04-03T09:17:37;7;7;
64114;PMS5003;62188;35.640;139.748;2023-04-03T09:20:02;7;7;
64114;PMS5003;62188;35.640;139.748;2023-04-03T09:22:27;8;6;
64114;PMS5003;62188;35.640;139.748;2023-04-03T09:24:55;9;8;
64114;PMS5003;62188;35.640;139.748;2023-04-03T09:27:17;7;7;
64114;PMS5003;62188;35.640;139.748;2023-04-03T09:29:43;6;6;
64114;PMS5003;62188;35.640;139.748;2023-04-03T09:32:18;10;9;
64114;PMS5003;62188;35.640;139.748;2023-04-03T09:34:35;8;8;
64114;PMS5003;62188;35.640;139.748;2023-04-03T09:37:00;6;6;
64114;PMS5003;62188;35.640;139.748;2023-04-03T09:39:25;7;6;
64114;PMS5003;62188;35.640;139.748;2023-04-03T09:41:56;6;5;
64114;PMS5003;62188;35.640;139.748;2023-04-03T09:44:21;6;6;
64114;PMS5003;62188;35.640;139.748;2023-04-03T09:46:41;7;6;
64114;PMS5003;62188;35.640;139.748;2023-04-03T09:49:09;7;7;
64114;PMS5003;62188;35.640;139.748;2023-04-03T09:51:33;7;6;
64114;PMS5003;62188;35.640;139.748;2023-04-03T09:53:58;6;6;
64114;PMS5003;62188;35.640;139.748;2023-04-03T09:56:25;6;6;
64114;PMS5003;62188;35.640;139.748;2023-04-03T09:58:50;7;6;
64114;PMS5003;62188;35.640;139.748;2023-04-03T10:03:40;6;5;
64114;PMS5003;62188;35.640;139.748;2023-04-03T10:06:14;6;6;
64114;PMS5003;62188;35.640;139.748;2023-04-03T10:08:32;7;7;
64114;PMS5003;62188;35.640;139.748;2023-04-03T10:11:07;9;7;
64114;PMS5003;62188;35.640;139.748;2023-04-03T10:13:23;6;6;
64114;PMS5003;62188;35.640;139.748;2023-04-03T10:15:50;7;6;
64114;PMS5003;62188;35.640;139.748;2023-04-03T10:18:19;6;6;
64114;PMS5003;62188;35.640;139.748;2023-04-03T10:20:42;9;7;
64114;PMS5003;62188;35.640;139.748;2023-04-03T10:25:32;7;7;
64114;PMS5003;62188;35.640;139.748;2023-04-03T10:27:58;8;7;
64114;PMS5003;62188;35.640;139.748;2023-04-03T10:30:28;7;7;
64114;PMS5003;62188;35.640;139.748;2023-04-03T10:32:51;8;7;
64114;PMS5003;62188;35.640;139.748;2023-04-03T10:35:16;5;5;
64114;PMS5003;62188;35.640;139.748;2023-04-03T10:37:43;8;7;
64114;PMS5003;62188;35.640;139.748;2023-04-03T10:40:05;7;7;
64114;PMS5003;62188;35.640;139.748;2023-04-03T10:42:32;6;6;
64114;PMS5003;62188;35.640;139.748;2023-04-03T10:44:59;5;5;
64114;PMS5003;62188;35.640;139.748;2023-04-03T10:47:21;6;6;
64114;PMS5003;62188;35.640;139.748;2023-04-03T10:49:49;7;7;
64114;PMS5003;62188;35.640;139.748;2023-04-03T10:52:14;7;7;
64114;PMS5003;62188;35.640;139.748;2023-04-03T10:54:38;10;10;
64114;PMS5003;62188;35.640;139.748;2023-04-03T10:57:03;8;8;
64114;PMS5003;62188;35.640;139.748;2023-04-03T10:59:30;7;7;
64114;PMS5003;62188;35.640;139.748;2023-04-03T11:01:55;6;6;
64114;PMS5003;62188;35.640;139.748;2023-04-03T11:04:20;8;8;
64114;PMS5003;62188;35.640;139.748;2023-04-03T11:06:46;9;7;
64114;PMS5003;62188;35.640;139.748;2023-04-03T11:09:14;8;8;
64114;PMS5003;62188;35.640;139.748;2023-04-03T11:11:37;8;8;
64114;PMS5003;62188;35.640;139.748;2023-04-03T11:14:03;18;18;
64114;PMS5003;62188;35.640;139.748;2023-04-03T11:16:29;7;7;
64114;PMS5003;62188;35.640;139.748;2023-04-03T11:18:56;8;8;
64114;PMS5003;62188;35.640;139.748;2023-04-03T11:21:20;8;6;
64114;PMS5003;62188;35.640;139.748;2023-04-03T11:23:45;9;8;
64114;PMS5003;62188;35.640;139.748;2023-04-03T11:26:11;9;9;
64114;PMS5003;62188;35.640;139.748;2023-04-03T11:28:36;7;7;
64114;PMS5003;62188;35.640;139.748;2023-04-03T11:31:05;6;6;
64114;PMS5003;62188;35.640;139.748;2023-04-03T11:33:33;6;6;
64114;PMS5003;62188;35.640;139.748;2023-04-03T11:35:53;7;6;
64114;PMS5003;62188;35.640;139.748;2023-04-03T11:38:21;9;9;
64114;PMS5003;62188;35.640;139.748;2023-04-03T11:40:44;7;7;
64114;PMS5003;62188;35.640;139.748;2023-04-03T11:45:36;9;7;
64114;PMS5003;62188;35.640;139.748;2023-04-03T11:48:01;8;8;
64114;PMS5003;62188;35.640;139.748;2023-04-03T11:50:37;7;7;
64114;PMS5003;62188;35.640;139.748;2023-04-03T11:52:57;7;7;
64114;PMS5003;62188;35.640;139.748;2023-04-03T11:57:45;7;7;
64114;PMS5003;62188;35.640;139.748;2023-04-03T12:02:35;10;8;
64114;PMS5003;62188;35.640;139.748;2023-04-03T12:07:25;7;7;
64114;PMS5003;62188;35.640;139.748;2023-04-03T12:12:22;8;7;
64114;PMS5003;62188;35.640;139.748;2023-04-03T12:14:42;7;7;
64114;PMS5003;62188;35.640;139.748;2023-04-03T12:17:11;6;6;
64114;PMS5003;62188;35.640;139.748;2023-04-03T12:19:35;7;7;
64114;PMS5003;62188;35.640;139.748;2023-04-03T12:22:06;8;8;
64114;PMS5003;62188;35.640;139.748;2023-04-03T12:24:25;8;8;
64114;PMS5003;62188;35.640;139.748;2023-04-03T12:26:51;7;7;
64114;PMS5003;62188;35.640;139.748;2023-04-03T12:29:17;8;8;
64114;PMS5003;62188;35.640;139.748;2023-04-03T12:31:44;6;6;
64114;PMS5003;62188;35.640;139.748;2023-04-03T12:34:11;8;6;
64114;PMS5003;62188;35.640;139.748;2023-04-03T12:36:36;7;7;
64114;PMS5003;62188;35.640;139.748;2023-04-03T12:39:02;8;8;
64114;PMS5003;62188;35.640;139.748;2023-04-03T12:41:26;8;6;
64114;PMS5003;62188;35.640;139.748;2023-04-03T12:43:53;7;7;
64114;PMS5003;62188;35.640;139.748;2023-04-03T12:46:15;7;6;
64114;PMS5003;62188;35.640;139.748;2023-04-03T12:48:49;7;6;
64114;PMS5003;62188;35.640;139.748;2023-04-03T12:51:06;8;8;
64114;PMS5003;62188;35.640;139.748;2023-04-03T12:53:32;9;7;
64114;PMS5003;62188;35.640;139.748;2023-04-03T12:55:57;12;11;
64114;PMS5003;62188;35.640;139.748;2023-04-03T12:58:23;10;10;
64114;PMS5003;62188;35.640;139.748;2023-04-03T13:05:39;7;7;
64114;PMS5003;62188;35.640;139.748;2023-04-03T13:08:06;8;8;
64114;PMS5003;62188;35.640;139.748;2023-04-03T13:10:30;6;6;
64114;PMS5003;62188;35.640;139.748;2023-04-03T13:12:57;8;6;
64114;PMS5003;62188;35.640;139.748;2023-04-03T13:15:22;7;7;
64114;PMS5003;62188;35.640;139.748;2023-04-03T13:17:46;9;9;
64114;PMS5003;62188;35.640;139.748;2023-04-03T13:20:14;7;7;
64114;PMS5003;62188;35.640;139.748;2023-04-03T13:22:39;8;8;
64114;PMS5003;62188;35.640;139.748;2023-04-03T13:25:03;8;8;
64114;PMS5003;62188;35.640;139.748;2023-04-03T13:27:29;8;7;
64114;PMS5003;62188;35.640;139.748;2023-04-03T13:29:55;7;7;
64114;PMS5003;62188;35.640;139.748;2023-04-03T13:32:22;9;8;
64114;PMS5003;62188;35.640;139.748;2023-04-03T13:34:46;9;8;
64114;PMS5003;62188;35.640;139.748;2023-04-03T13:39:37;7;6;
64114;PMS5003;62188;35.640;139.748;2023-04-03T13:42:15;6;6;
64114;PMS5003;62188;35.640;139.748;2023-04-03T13:44:31;6;6;
64114;PMS5003;62188;35.640;139.748;2023-04-03T13:46:54;9;9;
64114;PMS5003;62188;35.640;139.748;2023-04-03T13:49:20;9;8;
64114;PMS5003;62188;35.640;139.748;2023-04-03T13:51:44;8;8;
64114;PMS5003;62188;35.640;139.748;2023-04-03T13:54:16;6;6;
64114;PMS5003;62188;35.640;139.748;2023-04-03T13:56:37;7;7;
64114;PMS5003;62188;35.640;139.748;2023-04-03T13:59:04;9;8;
64114;PMS5003;62188;35.640;139.748;2023-04-03T14:03:54;9;8;
64114;PMS5003;62188;35.640;139.748;2023-04-03T14:06:18;7;7;
64114;PMS5003;62188;35.640;139.748;2023-04-03T14:08:44;6;6;
64114;PMS5003;62188;35.640;139.748;2023-04-03T14:11:12;10;7;
64114;PMS5003;62188;35.640;139.748;2023-04-03T14:13:35;8;8;
64114;PMS5003;62188;35.640;139.748;2023-04-03T14:16:00;8;7;
64114;PMS5003;62188;35.640;139.748;2023-04-03T14:18:26;7;7;
64114;PMS5003;62188;35.640;139.748;2023-04-03T14:20:52;7;7;
64114;PMS5003;62188;35.640;139.748;2023-04-03T14:23:17;7;7;
64114;PMS5003;62188;35.640;139.748;2023-04-03T14:25:43;8;7;
64114;PMS5003;62188;35.640;139.748;2023-04-03T14:28:14;7;6;
64114;PMS5003;62188;35.640;139.748;2023-04-03T14:30:34;9;9;
64114;PMS5003;62188;35.640;139.748;2023-04-03T14:33:00;9;8;
64114;PMS5003;62188;35.640;139.748;2023-04-03T14:35:25;6;6;
64114;PMS5003;62188;35.640;139.748;2023-04-03T14:37:51;9;9;
64114;PMS5003;62188;35.640;139.748;2023-04-03T14:40:18;9;9;
64114;PMS5003;62188;35.640;139.748;2023-04-03T14:42:42;8;8;
64114;PMS5003;62188;35.640;139.748;2023-04-03T14:45:09;7;7;
64114;PMS5003;62188;35.640;139.748;2023-04-03T14:47:33;8;8;
64114;PMS5003;62188;35.640;139.748;2023-04-03T14:49:59;7;7;
64114;PMS5003;62188;35.640;139.748;2023-04-03T14:52:25;8;8;
64114;PMS5003;62188;35.640;139.748;2023-04-03T14:54:51;7;7;
64114;PMS5003;62188;35.640;139.748;2023-04-03T14:57:15;8;8;
64114;PMS5003;62188;35.640;139.748;2023-04-03T14:59:40;8;8;
64114;PMS5003;62188;35.640;139.748;2023-04-03T15:04:32;7;7;
64114;PMS5003;62188;35.640;139.748;2023-04-03T15:06:57;9;9;
64114;PMS5003;62188;35.640;139.748;2023-04-03T15:09:24;9;9;
64114;PMS5003;62188;35.640;139.748;2023-04-03T15:11:49;8;7;
64114;PMS5003;62188;35.640;139.748;2023-04-03T15:14:14;8;8;
64114;PMS5003;62188;35.640;139.748;2023-04-03T15:16:40;7;6;
64114;PMS5003;62188;35.640;139.748;2023-04-03T15:19:05;7;7;
64114;PMS5003;62188;35.640;139.748;2023-04-03T15:21:31;7;7;
64114;PMS5003;62188;35.640;139.748;2023-04-03T15:23:57;9;8;
64114;PMS5003;62188;35.640;139.748;2023-04-03T15:26:22;10;10;
64114;PMS5003;62188;35.640;139.748;2023-04-03T15:28:48;7;7;
64114;PMS5003;62188;35.640;139.748;2023-04-03T15:31:13;7;7;
64114;PMS5003;62188;35.640;139.748;2023-04-03T15:33:39;9;9;
64114;PMS5003;62188;35.640;139.748;2023-04-03T15:36:05;8;8;
64114;PMS5003;62188;35.640;139.748;2023-04-03T15:38:31;9;9;
64114;PMS5003;62188;35.640;139.748;2023-04-03T15:40:56;7;7;
64114;PMS5003;62188;35.640;139.748;2023-04-03T15:43:21;7;7;
64114;PMS5003;62188;35.640;139.748;2023-04-03T15:45:47;7;7;
64114;PMS5003;62188;35.640;139.748;2023-04-03T15:48:13;9;8;
64114;PMS5003;62188;35.640;139.748;2023-04-03T15:50:39;7;7;
64114;PMS5003;62188;35.640;139.748;2023-04-03T15:53:04;8;8;
64114;PMS5003;62188;35.640;139.748;2023-04-03T15:55:30;10;9;
64114;PMS5003;62188;35.640;139.748;2023-04-03T15:57:55;9;8;
64114;PMS5003;62188;35.640;139.748;2023-04-03T16:00:21;9;8;
64114;PMS5003;62188;35.640;139.748;2023-04-03T16:02:47;8;8;
64114;PMS5003;62188;35.640;139.748;2023-04-03T16:05:12;10;10;
64114;PMS5003;62188;35.640;139.748;2023-04-03T16:07:37;9;8;
64114;PMS5003;62188;35.640;139.748;2023-04-03T16:10:03;8;7;
64114;PMS5003;62188;35.640;139.748;2023-04-03T16:12:28;9;9;
64114;PMS5003;62188;35.640;139.748;2023-04-03T16:14:53;11;9;
64114;PMS5003;62188;35.640;139.748;2023-04-03T16:17:19;11;11;